ARA228 DNMM-GOBD
Flight info
| Callsign | ARA228 |
|---|---|
| Flight time | N/A |
| Altitude | 34000 |
| Route | POLTO1Q POLTO UL433 ACC UB600 AD UR979 ERIDI ERIDI1A |
| Aircraft | B737/M-SDE2E3FGHIRWXY/LB1 |
Departure
| Time | N/A |
|---|---|
| Airport | Murtala Muhammed International Airport (DNMM) |
Arrival
| Time | 2026-05-07 14:55 |
|---|---|
| Airport | Blaise Diagne International Airport (GOBD) |
| Time | Latitude | Longitude | Altitude | Speed | Heading |
|---|---|---|---|---|---|
| 2026-05-07 14:55 | 14.67101 | -17.06837 | 271 ft | 0 kts | 86° |
| 2026-05-07 15:01 | 14.67101 | -17.06838 | 270 ft | 0 kts | 86° |
| 2026-05-07 15:21 | 14.67101 | -17.06839 | 270 ft | 0 kts | 86° |
| 2026-05-07 15:29 | 14.67100 | -17.06853 | 270 ft | 2 kts | 86° |
| 2026-05-07 15:30 | 14.67100 | -17.06869 | 270 ft | 2 kts | 86° |
| 2026-05-07 15:30 | 14.67098 | -17.06886 | 270 ft | 2 kts | 91° |
| 2026-05-07 15:30 | 14.67102 | -17.06902 | 270 ft | 2 kts | 142° |
| 2026-05-07 15:30 | 14.67111 | -17.06907 | 277 ft | 1 kts | 171° |
| 2026-05-07 15:33 | 14.67109 | -17.06908 | 270 ft | 1 kts | 186° |
| 2026-05-07 15:33 | 14.67107 | -17.06913 | 270 ft | 2 kts | 236° |
| 2026-05-07 15:33 | 14.67104 | -17.06924 | 270 ft | 0 kts | 253° |
| 2026-05-07 15:34 | 14.67104 | -17.06923 | 270 ft | 0 kts | 253° |
| 2026-05-07 15:37 | 14.67063 | -17.06941 | 270 ft | 13 kts | 195° |
| 2026-05-07 15:37 | 14.66945 | -17.06973 | 271 ft | 19 kts | 189° |
| 2026-05-07 15:37 | 14.66817 | -17.06977 | 272 ft | 18 kts | 180° |
| 2026-05-07 15:38 | 14.66693 | -17.06975 | 273 ft | 16 kts | 185° |
| 2026-05-07 15:38 | 14.66659 | -17.07058 | 273 ft | 13 kts | 253° |
| 2026-05-07 15:38 | 14.66587 | -17.07089 | 273 ft | 12 kts | 179° |
| 2026-05-07 15:38 | 14.66421 | -17.07087 | 274 ft | 31 kts | 181° |
| 2026-05-07 15:39 | 14.66205 | -17.07088 | 276 ft | 30 kts | 178° |
| 2026-05-07 15:39 | 14.66009 | -17.07080 | 277 ft | 28 kts | 180° |
| 2026-05-07 15:39 | 14.65821 | -17.07079 | 278 ft | 26 kts | 179° |
| 2026-05-07 15:39 | 14.65734 | -17.07001 | 278 ft | 17 kts | 102° |
| 2026-05-07 15:40 | 14.65710 | -17.07010 | 279 ft | 4 kts | 264° |
| 2026-05-07 15:40 | 14.65711 | -17.07015 | 279 ft | 0 kts | 276° |
| 2026-05-07 15:42 | 14.65711 | -17.07014 | 279 ft | 0 kts | 276° |
| 2026-05-07 15:46 | 14.65708 | -17.07038 | 279 ft | 15 kts | 252° |
| 2026-05-07 15:47 | 14.65542 | -17.07094 | 281 ft | 27 kts | 220° |
| 2026-05-07 15:47 | 14.65539 | -17.07256 | 281 ft | 17 kts | 322° |
| 2026-05-07 15:47 | 14.65589 | -17.07269 | 279 ft | 0 kts | 358° |
| 2026-05-07 15:50 | 14.65732 | -17.07274 | 278 ft | 55 kts | 360° |
| 2026-05-07 15:50 | 14.66366 | -17.07278 | 274 ft | 124 kts | 359° |
| 2026-05-07 15:50 | 14.66583 | -17.07282 | 276 ft | 0 kts | 358° |